Time;durP1;ratioP1;P1;durP2;ratioP2;P2;SDS_P1;SDS_P2;PMS_P1;PMS_P2;Temp;Humidity;BMP_temperature;BMP_pressure;BME280_temperature;BME280_humidity;BME280_pressure;Samples;Min_cycle;Max_cycle;Signal;HPM_P1;HPM_P2
2021/05/12 00:00:00;;;;;;;2.44;1.86;;;;;;;10.84;89.95;98975.63;2016729;80;20171;-76
2021/05/12 00:03:04;;;;;;;5.44;1.64;;;;;;;10.85;89.97;98982.53;2015899;78;20180;-77
2021/05/12 00:06:07;;;;;;;1.89;1.41;;;;;;;10.86;89.95;98977.31;2016580;80;20932;-76
2021/05/12 00:09:10;;;;;;;4.99;2.26;;;;;;;10.87;89.79;98976.44;2016779;80;20199;-76
2021/05/12 00:12:12;;;;;;;2.88;2.11;;;;;;;10.89;89.69;98984.22;2016473;80;20193;-76
2021/05/12 00:15:18;;;;;;;6.55;2.70;;;;;;;10.90;89.82;98979.00;2016845;80;20172;-76
2021/05/12 00:18:22;;;;;;;3.70;2.63;;;;;;;10.92;89.73;98984.16;2016540;80;20164;-76
2021/05/12 00:21:33;;;;;;;3.60;2.80;;;;;;;10.92;89.62;98984.16;2016458;80;20197;-75
2021/05/12 00:24:37;;;;;;;6.20;3.31;;;;;;;10.89;89.55;98976.41;2016579;80;20202;-76
2021/05/12 00:27:41;;;;;;;3.81;2.50;;;;;;;10.89;89.59;98976.41;2016757;80;20155;-76
2021/05/12 00:30:44;;;;;;;5.10;2.75;;;;;;;10.86;89.48;98969.53;2015723;78;20658;-75
2021/05/12 00:33:46;;;;;;;4.64;2.76;;;;;;;10.85;89.52;98973.00;2017325;80;20222;-76
2021/05/12 00:36:49;;;;;;;6.09;2.85;;;;;;;10.84;89.38;98975.63;2016933;80;20237;-75
2021/05/12 00:39:53;;;;;;;4.86;2.76;;;;;;;10.82;89.34;98972.19;2016816;80;20213;-76
2021/05/12 00:42:55;;;;;;;5.31;2.33;;;;;;;10.79;89.29;98974.81;2016697;80;20181;-75
2021/05/12 00:45:58;;;;;;;2.83;1.90;;;;;;;10.81;89.20;98988.66;2014272;78;20196;-79
2021/05/12 00:49:00;;;;;;;5.34;1.95;;;;;;;10.80;89.07;98977.41;2011917;80;20200;-76
2021/05/12 00:52:04;;;;;;;1.96;1.58;;;;;;;10.79;88.92;98978.28;2010895;80;20218;-76
2021/05/12 00:55:07;;;;;;;4.32;1.59;;;;;;;10.76;88.28;98982.63;2011602;80;20415;-75
2021/05/12 00:58:09;;;;;;;3.00;1.49;;;;;;;10.71;88.41;98984.44;2011669;80;20202;-76
2021/05/12 01:01:12;;;;;;;3.70;1.40;;;;;;;10.71;88.49;98981.84;2010162;77;21069;-76
2021/05/12 01:04:15;;;;;;;4.61;1.54;;;;;;;10.70;88.59;98982.72;2011957;80;20184;-77
2021/05/12 01:07:18;;;;;;;1.99;1.59;;;;;;;10.69;88.64;98988.78;2011248;80;20176;-76
2021/05/12 01:10:21;;;;;;;3.90;1.66;;;;;;;10.65;88.74;98987.97;2011784;80;20680;-77
2021/05/12 01:13:25;;;;;;;3.05;1.52;;;;;;;10.63;88.64;98997.50;2011575;80;20194;-75
2021/05/12 01:16:28;;;;;;;3.17;1.40;;;;;;;10.62;88.72;99000.13;2013808;78;21210;-76
2021/05/12 01:19:33;;;;;;;4.78;1.35;;;;;;;10.59;88.34;99008.78;2016712;80;21127;-76
2021/05/12 01:22:36;;;;;;;3.80;1.30;;;;;;;10.58;88.16;99001.88;2016683;80;20183;-76
2021/05/12 01:25:38;;;;;;;2.40;1.10;;;;;;;10.55;88.05;99007.09;2016862;80;20175;-75
2021/05/12 01:28:44;;;;;;;6.24;1.35;;;;;;;10.54;87.92;99010.56;2016262;80;20197;-77
2021/05/12 01:31:47;;;;;;;2.40;1.24;;;;;;;10.51;87.68;99006.28;2015441;77;22214;-79
2021/05/12 01:34:49;;;;;;;2.91;1.41;;;;;;;10.50;87.72;99006.28;2016420;80;20817;-76
2021/05/12 01:37:53;;;;;;;4.96;2.05;;;;;;;10.48;87.49;99008.06;2016493;80;20179;-75
2021/05/12 01:40:57;;;;;;;2.47;1.27;;;;;;;10.47;87.61;99006.34;2016909;80;20171;-76
2021/05/12 01:44:08;;;;;;;3.30;1.99;;;;;;;10.46;87.50;99002.00;2016914;80;20196;-75
2021/05/12 01:47:10;;;;;;;4.85;1.45;;;;;;;10.41;87.75;99007.25;2011634;78;20871;-78
2021/05/12 01:50:14;;;;;;;1.52;1.19;;;;;;;10.38;87.58;99009.00;2012011;80;20223;-75
2021/05/12 01:53:17;;;;;;;2.94;1.55;;;;;;;10.37;87.66;99015.06;2011773;80;20160;-76
2021/05/12 01:56:20;;;;;;;2.19;1.35;;;;;;;10.38;87.74;99009.00;2012383;80;20164;-76
2021/05/12 01:59:22;;;;;;;3.75;1.46;;;;;;;10.37;87.91;99012.47;2012250;80;20198;-76
2021/05/12 02:02:25;;;;;;;3.61;1.70;;;;;;;10.36;87.88;99014.22;2015696;80;24537;-75
2021/05/12 02:05:27;;;;;;;2.25;1.44;;;;;;;10.33;87.96;99021.16;2018095;80;20253;-75
2021/05/12 02:08:30;;;;;;;4.55;1.79;;;;;;;10.34;88.04;99010.78;2017946;80;20213;-75
2021/05/12 02:11:34;;;;;;;1.84;1.74;;;;;;;10.31;88.06;99013.41;2018846;80;20705;-75
2021/05/12 02:14:38;;;;;;;3.44;1.70;;;;;;;10.29;87.94;99003.03;2019084;80;20176;-76
2021/05/12 02:17:40;;;;;;;5.15;1.76;;;;;;;10.32;88.00;99001.28;2013894;80;24357;-75
2021/05/12 02:20:43;;;;;;;2.00;1.54;;;;;;;10.32;88.01;98999.56;2013479;80;20169;-76
2021/05/12 02:23:46;;;;;;;3.67;2.21;;;;;;;10.28;87.97;98997.88;2013276;80;20369;-76
2021/05/12 02:26:48;;;;;;;4.05;1.95;;;;;;;10.25;88.07;98998.75;2013317;80;20967;-76
2021/05/12 02:29:52;;;;;;;4.18;2.17;;;;;;;10.26;87.99;98997.03;2013631;80;20211;-76
2021/05/12 02:32:56;;;;;;;3.40;1.66;;;;;;;10.26;87.80;98999.63;2012592;78;21133;-75
2021/05/12 02:35:59;;;;;;;3.17;1.54;;;;;;;10.25;87.82;99001.34;2011819;80;20172;-75
2021/05/12 02:39:01;;;;;;;3.78;1.70;;;;;;;10.26;87.76;98999.63;2013089;80;20757;-75
2021/05/12 02:42:04;;;;;;;2.35;1.36;;;;;;;10.26;87.85;99004.81;2014174;80;20229;-76
2021/05/12 02:45:09;;;;;;;2.28;1.44;;;;;;;10.22;87.89;99001.34;2012695;80;20196;-75
2021/05/12 02:48:11;;;;;;;8.94;2.17;;;;;;;10.22;87.93;99003.94;2013371;78;20862;-76
2021/05/12 02:51:14;;;;;;;4.10;1.66;;;;;;;10.20;88.13;99000.47;2012563;80;20206;-75
2021/05/12 02:54:18;;;;;;;2.40;1.66;;;;;;;10.19;88.37;98997.91;2013563;80;20210;-76
2021/05/12 02:57:22;;;;;;;4.54;1.83;;;;;;;10.20;88.58;98999.63;2013410;80;20245;-76
2021/05/12 03:00:28;;;;;;;1.59;1.33;;;;;;;10.18;88.64;98994.44;2012612;77;21956;-75
2021/05/12 03:03:31;;;;;;;3.92;1.74;;;;;;;10.17;88.56;98990.13;2018910;80;20709;-75
2021/05/12 03:06:33;;;;;;;1.64;1.42;;;;;;;10.19;88.35;98993.56;2016995;80;20183;-74
2021/05/12 03:09:36;;;;;;;3.33;1.45;;;;;;;10.17;88.18;98989.28;2017067;80;20218;-75
2021/05/12 03:12:39;;;;;;;2.06;1.31;;;;;;;10.17;88.30;98989.28;2016912;80;20750;-75
2021/05/12 03:15:42;;;;;;;2.44;1.29;;;;;;;10.17;88.33;98991.88;2015006;77;22827;-74
2021/05/12 03:18:45;;;;;;;2.39;1.60;;;;;;;10.17;88.31;98989.28;2013283;80;20214;-75
2021/05/12 03:21:47;;;;;;;4.28;1.60;;;;;;;10.17;88.32;98989.28;2012675;80;20617;-76
2021/05/12 03:24:50;;;;;;;2.89;1.39;;;;;;;10.17;88.21;98995.31;2015845;80;20180;-75
2021/05/12 03:27:53;;;;;;;2.20;1.76;;;;;;;10.16;88.21;98993.59;2012159;80;20204;-74
2021/05/12 03:30:56;;;;;;;5.46;1.20;;;;;;;10.16;88.37;98991.00;2012131;78;21928;-75
2021/05/12 03:33:59;;;;;;;4.10;1.19;;;;;;;10.15;88.35;98991.91;2017899;80;20180;-75
2021/05/12 03:37:02;;;;;;;2.60;1.25;;;;;;;10.17;88.35;98991.88;2020704;80;20314;-75
2021/05/12 03:40:06;;;;;;;2.25;1.09;;;;;;;10.16;88.40;98996.19;2017420;80;20472;-75
2021/05/12 03:43:10;;;;;;;1.56;1.01;;;;;;;10.18;88.43;99004.84;2017347;80;20602;-75
2021/05/12 03:46:12;;;;;;;3.03;1.39;;;;;;;10.20;88.33;99007.41;2014614;77;25141;-76
2021/05/12 03:49:15;;;;;;;1.49;1.11;;;;;;;10.20;88.18;99005.66;2012022;80;20233;-76
2021/05/12 03:52:18;;;;;;;2.00;1.10;;;;;;;10.20;88.22;99003.06;2011462;80;20189;-76
2021/05/12 03:55:22;;;;;;;3.42;1.34;;;;;;;10.22;88.13;99008.28;2011428;80;20194;-75
2021/05/12 03:58:25;;;;;;;1.84;1.40;;;;;;;10.22;88.28;99010.88;2011668;80;20168;-74
2021/05/12 04:01:28;;;;;;;3.97;1.20;;;;;;;10.20;88.24;99010.00;2010997;78;20585;-75
2021/05/12 04:04:31;;;;;;;1.88;1.23;;;;;;;10.20;88.23;99010.88;2011739;80;20184;-75
2021/05/12 04:07:34;;;;;;;5.91;1.30;;;;;;;10.18;88.33;99014.34;2011284;80;20629;-74
2021/05/12 04:10:36;;;;;;;3.20;1.10;;;;;;;10.18;88.30;99015.22;2011084;80;20235;-74
2021/05/12 04:13:39;;;;;;;2.67;1.55;;;;;;;10.19;88.39;99014.34;2007694;80;20201;-74
2021/05/12 04:16:42;;;;;;;2.51;1.10;;;;;;;10.22;88.21;99016.06;2013468;78;20783;-75
2021/05/12 04:19:44;;;;;;;6.85;1.24;;;;;;;10.21;88.23;99017.81;2013319;80;21181;-74
2021/05/12 04:22:47;;;;;;;6.10;1.63;;;;;;;10.21;88.26;99020.41;2016763;80;20453;-75
2021/05/12 04:25:50;;;;;;;2.91;1.21;;;;;;;10.22;88.38;99021.25;2017909;80;20168;-74
2021/05/12 04:28:52;;;;;;;1.75;1.04;;;;;;;10.22;88.52;99013.47;2016795;80;20171;-74
2021/05/12 04:31:55;;;;;;;5.07;1.10;;;;;;;10.23;88.45;99017.78;2012895;78;22101;-75
2021/05/12 04:34:58;;;;;;;1.70;0.99;;;;;;;10.25;88.36;99023.84;2011589;80;20825;-76
2021/05/12 04:38:01;;;;;;;2.49;1.00;;;;;;;10.27;88.15;99025.56;2012080;80;20301;-76
2021/05/12 04:41:04;;;;;;;2.25;1.01;;;;;;;10.25;88.18;99029.91;2011887;80;20236;-74
2021/05/12 04:44:06;;;;;;;4.10;1.10;;;;;;;10.23;87.91;99023.88;2012465;80;20168;-75
2021/05/12 04:47:11;;;;;;;2.10;0.93;;;;;;;10.23;87.80;99020.38;2014939;78;25789;-75
2021/05/12 04:50:14;;;;;;;4.25;1.20;;;;;;;10.23;87.68;99010.91;2017739;80;20384;-74
2021/05/12 04:53:16;;;;;;;3.63;1.13;;;;;;;10.28;87.64;99016.03;2017568;80;20648;-74
2021/05/12 04:56:19;;;;;;;4.22;1.17;;;;;;;10.30;87.65;99009.09;2016487;80;20197;-74
2021/05/12 04:59:22;;;;;;;1.77;1.04;;;;;;;10.31;87.64;99020.31;2017314;80;20248;-74
2021/05/12 05:02:24;;;;;;;2.17;1.04;;;;;;;10.33;87.83;99021.16;2012405;80;25197;-76
2021/05/12 05:05:28;;;;;;;5.26;1.08;;;;;;;10.37;87.85;99021.13;2011703;80;20198;-74
2021/05/12 05:08:31;;;;;;;3.11;1.23;;;;;;;10.38;87.74;99019.38;2011537;80;20206;-73
2021/05/12 05:11:34;;;;;;;3.16;0.94;;;;;;;10.39;87.63;99023.69;2011791;80;20172;-75
2021/05/12 05:14:36;;;;;;;2.85;1.04;;;;;;;10.38;87.41;99021.97;2011781;80;20172;-73
2021/05/12 05:17:41;;;;;;;1.83;0.96;;;;;;;10.37;87.49;99022.84;2015578;77;21209;-74
2021/05/12 05:20:44;;;;;;;2.88;1.06;;;;;;;10.35;87.34;99022.88;2016698;80;20808;-74
2021/05/12 05:23:49;;;;;;;4.32;1.10;;;;;;;10.37;87.16;99020.25;2016576;80;21128;-74
2021/05/12 05:26:52;;;;;;;3.19;1.52;;;;;;;10.36;86.99;99021.13;2016513;80;20196;-74
2021/05/12 05:29:55;;;;;;;2.59;1.00;;;;;;;10.39;87.27;99024.56;2016752;80;20207;-74
2021/05/12 05:32:59;;;;;;;2.69;0.84;;;;;;;10.42;86.93;99024.56;2010961;78;24593;-74
2021/05/12 05:36:02;;;;;;;1.74;1.06;;;;;;;10.43;86.68;99028.88;2011693;80;20190;-75
2021/05/12 05:39:04;;;;;;;2.41;0.90;;;;;;;10.45;86.43;99029.72;2011650;80;20161;-74
2021/05/12 05:42:11;;;;;;;6.94;1.15;;;;;;;10.46;86.23;99028.84;2011710;80;20192;-73
2021/05/12 05:45:14;;;;;;;3.78;1.10;;;;;;;10.52;86.30;99030.50;2010574;80;20505;-75
2021/05/12 05:48:16;;;;;;;3.39;1.04;;;;;;;10.56;85.93;99027.84;2014768;80;21038;-73
2021/05/12 05:51:21;;;;;;;2.50;1.10;;;;;;;10.61;85.88;99032.16;2016771;80;20581;-74
2021/05/12 05:54:24;;;;;;;4.53;1.29;;;;;;;10.64;85.88;99040.78;2014856;80;20228;-73
2021/05/12 05:57:27;;;;;;;2.92;1.00;;;;;;;10.66;85.00;99031.22;2013879;80;20223;-74
2021/05/12 06:00:30;;;;;;;3.13;1.40;;;;;;;10.68;84.58;99029.47;2012312;78;21426;-73
2021/05/12 06:03:32;;;;;;;2.45;1.04;;;;;;;10.69;83.77;99032.91;2009009;80;20184;-73
2021/05/12 06:06:35;;;;;;;3.08;1.20;;;;;;;10.68;83.12;99037.25;2008426;80;20838;-73
2021/05/12 06:09:38;;;;;;;4.40;1.27;;;;;;;10.59;82.03;99034.75;2009302;80;20311;-75
2021/05/12 06:12:40;;;;;;;1.88;1.08;;;;;;;10.62;82.23;99037.34;2011353;80;20709;-73
2021/05/12 06:15:43;;;;;;;7.51;1.80;;;;;;;10.63;82.05;99039.06;2012216;77;21600;-74
2021/05/12 06:18:46;;;;;;;2.85;1.50;;;;;;;10.62;81.61;99036.47;2015370;80;20175;-73
2021/05/12 06:21:48;;;;;;;3.33;1.15;;;;;;;10.68;81.96;99039.84;2016016;80;20160;-74
2021/05/12 06:24:53;;;;;;;3.31;1.34;;;;;;;10.74;81.53;99044.09;2016483;80;20209;-75
2021/05/12 06:27:56;;;;;;;4.15;1.27;;;;;;;10.80;81.32;99050.13;2016704;80;20288;-75
2021/05/12 06:30:58;;;;;;;2.33;1.10;;;;;;;10.85;81.22;99053.50;2016117;78;24007;-74
2021/05/12 06:34:02;;;;;;;2.67;1.10;;;;;;;10.84;81.08;99045.75;2016910;80;20164;-74
2021/05/12 06:37:05;;;;;;;2.81;1.38;;;;;;;10.78;80.50;99041.50;2017154;80;20160;-74
2021/05/12 06:40:08;;;;;;;2.64;0.90;;;;;;;10.76;81.04;99047.53;2017264;80;20188;-75
2021/05/12 06:43:11;;;;;;;5.91;2.21;;;;;;;10.72;81.45;99048.47;2017245;80;20199;-73
2021/05/12 06:46:13;;;;;;;2.90;0.82;;;;;;;10.71;81.79;99047.59;2015724;78;22346;-73
2021/05/12 06:49:16;;;;;;;2.97;1.13;;;;;;;10.71;81.63;99046.75;2016477;80;20784;-73
2021/05/12 06:52:18;;;;;;;1.89;1.00;;;;;;;10.73;81.05;99048.44;2018134;80;20692;-75
2021/05/12 06:55:22;;;;;;;2.85;0.90;;;;;;;10.75;80.83;99056.22;2017645;80;20739;-72
2021/05/12 06:58:26;;;;;;;2.56;0.95;;;;;;;10.76;81.04;99052.75;2017746;80;20294;-73
2021/05/12 07:01:29;;;;;;;2.59;1.09;;;;;;;10.80;80.25;99059.66;2013950;78;21432;-72
2021/05/12 07:04:32;;;;;;;3.31;0.85;;;;;;;10.91;80.47;99057.78;2012214;80;20279;-73
2021/05/12 07:07:35;;;;;;;5.90;1.10;;;;;;;10.97;80.47;99051.69;2012930;80;20268;-74
2021/05/12 07:10:38;;;;;;;2.96;1.00;;;;;;;11.06;79.55;99055.00;2011648;80;20198;-73
2021/05/12 07:13:41;;;;;;;3.45;0.95;;;;;;;11.07;78.42;99050.66;2013110;80;20630;-72
2021/05/12 07:16:44;;;;;;;4.09;0.98;;;;;;;11.14;78.71;99048.00;2014377;78;22266;-73
2021/05/12 07:19:46;;;;;;;5.84;1.00;;;;;;;11.25;78.22;99041.78;2017549;80;20195;-73
2021/05/12 07:22:50;;;;;;;5.26;1.19;;;;;;;11.41;78.51;99041.56;2018054;80;20203;-72
2021/05/12 07:25:55;;;;;;;2.96;1.00;;;;;;;11.64;77.59;99035.19;2017160;80;20172;-73
2021/05/12 07:28:58;;;;;;;1.90;0.85;;;;;;;11.80;76.71;99034.97;2017082;80;20233;-73
2021/05/12 07:32:01;;;;;;;2.10;1.00;;;;;;;11.88;75.66;99031.41;2012093;77;21271;-74
2021/05/12 07:35:05;;;;;;;1.49;1.01;;;;;;;11.99;75.92;99022.53;2012412;80;20287;-73
2021/05/12 07:38:07;;;;;;;2.03;1.00;;;;;;;12.12;75.79;99027.56;2010796;80;20193;-73
2021/05/12 07:41:10;;;;;;;1.49;0.89;;;;;;;12.15;74.39;99030.09;2011500;80;20574;-73
2021/05/12 07:44:13;;;;;;;3.53;0.90;;;;;;;12.14;73.20;99034.44;2012203;80;20590;-73
2021/05/12 07:47:16;;;;;;;5.13;1.10;;;;;;;12.12;73.32;99033.63;2015295;78;20179;-72
2021/05/12 07:50:19;;;;;;;3.72;1.00;;;;;;;12.08;73.30;99032.81;2016219;80;20192;-73
2021/05/12 07:53:22;;;;;;;4.82;1.00;;;;;;;12.07;73.84;99031.09;2016718;80;20195;-72
2021/05/12 07:56:24;;;;;;;2.08;1.00;;;;;;;12.00;74.01;99032.06;2016559;80;20201;-72
2021/05/12 07:59:27;;;;;;;1.92;0.90;;;;;;;12.01;73.57;99038.13;2016223;80;20172;-72
2021/05/12 08:02:30;;;;;;;4.56;1.17;;;;;;;11.98;73.93;99036.44;2011149;77;21578;-72
2021/05/12 08:05:33;;;;;;;5.34;0.85;;;;;;;11.94;74.10;99031.31;2012864;80;20291;-73
2021/05/12 08:08:37;;;;;;;2.65;1.15;;;;;;;11.87;74.20;99038.34;2012496;80;20228;-73
2021/05/12 08:11:40;;;;;;;4.31;0.89;;;;;;;11.84;73.91;99038.38;2011634;80;20180;-73
2021/05/12 08:14:42;;;;;;;6.19;1.00;;;;;;;11.89;74.28;99049.59;2009297;80;20218;-73
2021/05/12 08:17:46;;;;;;;1.96;0.90;;;;;;;11.91;74.63;99040.03;2013076;78;21273;-75
2021/05/12 08:20:48;;;;;;;2.05;0.90;;;;;;;11.87;73.88;99042.69;2014587;80;20613;-75
2021/05/12 08:23:53;;;;;;;1.67;0.80;;;;;;;11.94;74.35;99041.72;2014817;80;20183;-73
2021/05/12 08:26:56;;;;;;;3.76;1.11;;;;;;;12.01;73.89;99051.13;2014527;80;20172;-74
2021/05/12 08:30:00;;;;;;;3.28;0.89;;;;;;;12.09;73.79;99054.47;2014760;80;21169;-74
2021/05/12 08:33:04;;;;;;;2.34;0.90;;;;;;;12.21;73.26;99049.09;2016765;78;23200;-74
2021/05/12 08:36:07;;;;;;;3.34;1.04;;;;;;;12.14;72.02;99055.25;2015337;80;20168;-74
2021/05/12 08:39:10;;;;;;;2.28;1.00;;;;;;;12.17;73.17;99044.78;2016250;80;20152;-74
2021/05/12 08:42:13;;;;;;;5.15;0.90;;;;;;;12.15;73.41;99051.78;2017081;80;20180;-73
2021/05/12 08:45:18;;;;;;;2.47;0.80;;;;;;;12.22;73.31;99049.94;2016058;80;20190;-73
2021/05/12 08:48:23;;;;;;;2.49;0.86;;;;;;;12.16;72.90;99050.88;2016423;80;20296;-73
2021/05/12 08:51:26;;;;;;;2.01;0.91;;;;;;;12.21;72.93;99043.00;2016454;80;20201;-73
2021/05/12 08:54:30;;;;;;;3.36;1.00;;;;;;;12.34;73.29;99037.56;2017283;80;20205;-73
2021/05/12 08:57:33;;;;;;;6.22;1.00;;;;;;;12.56;74.24;99039.78;2016323;80;20694;-73
2021/05/12 09:00:35;;;;;;;3.31;0.76;;;;;;;12.79;74.18;99035.03;2016293;78;20482;-73
2021/05/12 09:03:38;;;;;;;2.36;0.94;;;;;;;13.00;73.17;99032.00;2016613;80;20715;-74
2021/05/12 09:06:41;;;;;;;2.63;0.75;;;;;;;13.15;71.90;99030.84;2017325;80;20218;-73
2021/05/12 09:09:44;;;;;;;5.29;0.94;;;;;;;13.10;69.37;99019.63;2017472;80;20205;-73
2021/05/12 09:12:53;;;;;;;3.71;0.90;;;;;;;13.15;70.00;99022.16;2016993;80;20200;-73
2021/05/12 09:16:24;;;;;;;3.72;0.90;;;;;;;13.27;70.40;99021.91;2014349;80;22864;-74
2021/05/12 09:19:28;;;;;;;3.22;0.90;;;;;;;13.28;69.19;99021.03;2009452;80;20357;-74
2021/05/12 09:22:31;;;;;;;1.84;0.88;;;;;;;13.35;69.60;99025.22;2009588;80;20164;-74
2021/05/12 09:25:37;;;;;;;4.11;0.81;;;;;;;13.54;69.64;99018.72;2008999;80;20206;-73
2021/05/12 09:28:39;;;;;;;3.38;0.90;;;;;;;13.63;68.95;99017.63;2009356;80;20185;-73
2021/05/12 09:31:42;;;;;;;5.04;1.23;;;;;;;13.64;68.41;99014.13;2011143;78;21525;-73
2021/05/12 09:35:02;;;;;;;3.22;1.01;;;;;;;13.95;69.25;99006.44;2014226;80;20187;-75
2021/05/12 09:38:16;;;;;;;4.32;1.15;;;;;;;14.35;66.94;99003.69;2014432;80;20252;-74
2021/05/12 09:41:19;;;;;;;3.71;1.10;;;;;;;14.53;66.52;98999.78;2014476;80;20224;-74
2021/05/12 09:44:28;;;;;;;2.19;0.80;;;;;;;14.87;65.75;98998.84;2015900;80;20192;-74
2021/05/12 09:47:31;;;;;;;4.24;0.90;;;;;;;15.71;64.75;98990.25;2010417;77;157098;-71
2021/05/12 09:50:40;;;;;;;5.03;0.82;;;;;;;16.41;60.19;98992.31;2011895;80;20193;-66
2021/05/12 09:54:09;;;;;;;4.80;0.95;;;;;;;16.49;56.99;98987.63;2011873;80;20223;-71
2021/05/12 09:57:12;;;;;;;2.30;0.76;;;;;;;16.32;59.98;98980.34;2011716;80;20256;-78
2021/05/12 10:00:30;;;;;;;3.80;0.84;;;;;;;16.12;59.05;98980.19;2012392;80;20938;-76
2021/05/12 10:03:34;;;;;;;6.19;1.31;;;;;;;15.74;59.44;98980.59;2012798;80;20188;-78
2021/05/12 10:06:36;;;;;;;7.44;1.04;;;;;;;15.40;60.08;98971.13;2011867;80;20201;-76
2021/05/12 10:09:44;;;;;;;3.97;0.74;;;;;;;15.10;61.66;98986.00;2012095;80;20593;-76
2021/05/12 10:12:46;;;;;;;2.84;0.90;;;;;;;14.95;62.07;98970.75;2013222;80;20180;-76
2021/05/12 10:15:49;;;;;;;6.04;1.44;;;;;;;15.23;62.46;98965.56;2016553;78;20481;-76
2021/05/12 10:18:52;;;;;;;7.84;1.91;;;;;;;15.47;62.60;98966.59;2016971;80;20202;-76
2021/05/12 10:21:59;;;;;;;3.45;0.98;;;;;;;15.53;62.19;98962.00;2018066;80;20180;-76
2021/05/12 10:25:02;;;;;;;5.75;0.84;;;;;;;15.29;61.04;98960.16;2017519;80;20172;-77
2021/05/12 10:28:06;;;;;;;3.17;0.90;;;;;;;15.38;63.11;98962.47;2017594;80;20163;-77
2021/05/12 10:31:11;;;;;;;4.51;1.80;;;;;;;15.71;59.05;98964.06;2014716;78;20212;-77
2021/05/12 10:34:18;;;;;;;2.65;0.85;;;;;;;16.04;58.61;98952.56;2013580;80;20781;-76
2021/05/12 10:37:27;;;;;;;4.34;0.90;;;;;;;16.65;56.86;98945.16;2012569;80;20164;-77
2021/05/12 10:40:32;;;;;;;4.60;1.01;;;;;;;16.82;57.04;98940.19;2011855;80;20710;-76
2021/05/12 10:43:41;;;;;;;3.08;0.90;;;;;;;16.57;56.04;98942.84;2012359;80;20198;-76
2021/05/12 10:46:45;;;;;;;5.78;1.00;;;;;;;16.25;55.96;98942.19;2012522;78;95695;-76
2021/05/12 10:49:51;;;;;;;3.70;0.79;;;;;;;16.09;57.51;98940.16;2016919;80;20282;-77
2021/05/12 10:53:17;;;;;;;3.36;0.79;;;;;;;15.80;56.74;98943.72;2017662;80;20191;-77
2021/05/12 10:56:32;;;;;;;3.74;1.14;;;;;;;15.60;57.33;98932.13;2017365;80;20310;-77
2021/05/12 10:59:40;;;;;;;3.10;0.80;;;;;;;15.53;57.94;98938.44;2017525;80;20200;-77
2021/05/12 11:03:02;;;;;;;6.33;1.69;;;;;;;15.45;57.71;98926.53;2011577;77;21164;-77
2021/05/12 11:06:05;;;;;;;5.21;1.31;;;;;;;15.83;60.92;98928.81;2012262;80;20208;-77
2021/05/12 11:09:09;;;;;;;7.26;1.40;;;;;;;16.55;60.43;98928.94;2012740;80;20194;-77
2021/05/12 11:12:16;;;;;;;15.38;2.28;;;;;;;17.16;57.21;98926.66;2012393;80;20208;-70
2021/05/12 11:15:18;;;;;;;6.35;2.13;;;;;;;17.89;56.50;98912.38;2010757;78;96539;-71
2021/05/12 11:18:48;;;;;;;4.28;0.82;;;;;;;18.23;54.53;98911.81;2016815;80;20291;-71
2021/05/12 11:21:51;;;;;;;9.91;2.85;;;;;;;17.96;50.52;98911.25;2017799;80;20168;-71
2021/05/12 11:25:00;;;;;;;4.45;1.10;;;;;;;17.47;53.12;98903.56;2017206;80;20305;-71
2021/05/12 11:31:49;;;;;;;7.51;1.60;;;;;;;17.16;56.05;98903.91;2015040;78;38550;-71
2021/05/12 11:34:32;;;;;;;4.30;0.80;;;;;;;16.91;55.27;98898.75;2012121;80;20311;-72
2021/05/12 11:37:39;;;;;;;3.20;0.84;;;;;;;16.74;54.51;98892.44;2012171;80;20902;-72
2021/05/12 11:40:58;;;;;;;3.38;0.70;;;;;;;16.62;54.73;98897.19;2012250;80;20222;-71
2021/05/12 11:44:02;;;;;;;5.11;0.93;;;;;;;16.74;54.05;98893.28;2012631;80;20246;-71
2021/05/12 11:47:04;;;;;;;4.47;0.70;;;;;;;16.76;54.04;98890.63;2013825;77;40294;-71
2021/05/12 11:50:25;;;;;;;5.51;0.70;;;;;;;16.84;55.08;98889.41;2016676;80;20284;-71
2021/05/12 11:53:28;;;;;;;8.16;1.54;;;;;;;16.98;54.51;98885.41;2017086;80;20203;-70
2021/05/12 11:56:50;;;;;;;3.96;0.79;;;;;;;17.01;52.52;98888.75;2016865;80;20282;-73
2021/05/12 11:59:54;;;;;;;2.96;0.77;;;;;;;17.09;53.93;98899.81;2017841;80;20707;-71
2021/05/12 12:03:07;;;;;;;3.88;0.80;;;;;;;17.12;54.20;98880.47;2011080;78;20663;-72
2021/05/12 12:06:14;;;;;;;3.45;0.82;;;;;;;16.94;51.98;98874.19;2012603;80;20585;-72
2021/05/12 12:09:18;;;;;;;4.36;0.80;;;;;;;16.92;50.56;98883.88;2012199;80;20196;-72
2021/05/12 12:12:20;;;;;;;4.61;0.59;;;;;;;16.84;51.40;98873.66;2011726;80;20220;-70
2021/05/12 12:15:23;;;;;;;11.77;0.95;;;;;;;16.74;50.41;98874.09;2011368;78;20234;-72
2021/05/12 12:18:31;;;;;;;7.50;0.76;;;;;;;16.60;50.87;98875.41;2017287;80;20188;-71
2021/05/12 12:21:34;;;;;;;5.63;0.61;;;;;;;16.70;52.76;98868.13;2017807;80;20315;-72
2021/05/12 12:24:37;;;;;;;2.86;0.70;;;;;;;16.68;51.87;98866.44;2016767;80;20168;-70
2021/05/12 12:27:41;;;;;;;8.07;0.90;;;;;;;16.71;53.03;98858.47;2016987;80;20310;-71
2021/05/12 12:30:44;;;;;;;5.64;0.70;;;;;;;16.81;53.26;98865.06;2015287;77;33438;-74
2021/05/12 12:34:08;;;;;;;3.39;1.10;;;;;;;16.93;53.24;98851.50;2012320;80;20346;-73
2021/05/12 12:37:17;;;;;;;5.10;0.85;;;;;;;17.07;53.92;98858.84;2011637;80;20320;-73
2021/05/12 12:40:22;;;;;;;;;;;;;;;17.21;53.70;98854.72;2012024;80;20554;-74
2021/05/12 12:43:36;;;;;;;4.91;0.60;;;;;;;17.23;52.66;98859.91;2011815;80;20470;-71
2021/05/12 12:46:40;;;;;;;3.28;0.64;;;;;;;17.25;52.53;98852.00;2013044;78;44226;-70
2021/05/12 12:50:06;;;;;;;4.80;0.69;;;;;;;17.14;52.38;98855.03;2017362;80;20211;-71
2021/05/12 12:53:12;;;;;;;4.24;0.85;;;;;;;17.05;51.81;98850.13;2016993;80;20739;-71
2021/05/12 12:56:14;;;;;;;4.72;0.70;;;;;;;17.02;52.09;98847.66;2017138;80;20188;-70
2021/05/12 12:59:18;;;;;;;9.09;0.73;;;;;;;16.90;50.63;98841.97;2017478;80;20187;-70
2021/05/12 13:02:20;;;;;;;3.10;0.88;;;;;;;16.91;53.19;98840.22;2016075;78;56319;-68
2021/05/12 13:05:24;;;;;;;4.59;0.88;;;;;;;17.00;52.76;98847.69;2017384;80;21065;-70
2021/05/12 13:08:28;;;;;;;9.34;1.00;;;;;;;17.04;51.39;98845.81;2016779;80;20887;-72
2021/05/12 13:11:49;;;;;;;4.15;0.80;;;;;;;17.12;54.47;98841.13;2016477;80;20257;-72
2021/05/12 13:14:53;;;;;;;11.58;1.36;;;;;;;17.20;54.39;98854.78;2017291;80;20188;-75
2021/05/12 13:18:01;;;;;;;8.34;1.05;;;;;;;17.31;55.35;98842.09;2011221;80;35295;-73
2021/05/12 13:21:04;;;;;;;3.75;0.80;;;;;;;17.59;50.86;98840.94;2011341;80;20638;-73
2021/05/12 13:24:10;;;;;;;4.93;0.86;;;;;;;17.78;50.93;98832.28;2011789;80;20200;-73
2021/05/12 13:27:12;;;;;;;4.26;0.91;;;;;;;18.11;49.71;98839.63;2011611;80;20176;-74
2021/05/12 13:30:15;;;;;;;3.83;0.70;;;;;;;18.40;49.50;98839.19;2010962;78;29858;-74
2021/05/12 13:33:23;;;;;;;4.78;0.75;;;;;;;18.68;46.77;98832.72;2011823;80;20198;-74
2021/05/12 13:36:26;;;;;;;4.36;0.76;;;;;;;18.69;46.51;98822.13;2009807;80;20173;-74
2021/05/12 13:39:35;;;;;;;7.25;0.84;;;;;;;18.57;45.97;98816.53;2010810;80;20165;-74
2021/05/12 13:42:38;;;;;;;7.61;0.80;;;;;;;18.14;42.71;98823.75;2010595;80;20205;-69
2021/05/12 13:45:41;;;;;;;5.60;1.06;;;;;;;18.01;46.24;98822.56;2011391;78;20236;-71
2021/05/12 13:48:44;;;;;;;4.91;0.85;;;;;;;18.18;46.53;98822.69;2016838;80;20164;-71
2021/05/12 13:51:51;;;;;;;5.89;0.93;;;;;;;18.14;46.00;98815.84;2016422;80;20300;-71
2021/05/12 13:55:02;;;;;;;3.26;0.75;;;;;;;18.14;45.92;98813.22;2018809;80;20737;-71
2021/05/12 14:04:46;;;;;;;4.54;0.86;;;;;;;19.20;44.00;98790.75;2012310;80;20271;-75
2021/05/12 14:07:50;;;;;;;3.85;0.60;;;;;;;19.78;43.25;98795.78;2015919;80;20676;-75
2021/05/12 14:10:53;;;;;;;7.40;0.98;;;;;;;19.92;41.43;98799.38;2017448;80;20194;-75
2021/05/12 14:14:02;;;;;;;4.78;0.90;;;;;;;20.12;41.05;98789.59;2017028;80;20172;-73
2021/05/12 14:20:11;;;;;;;5.71;1.04;;;;;;;19.97;39.93;98778.06;2010762;80;20194;-74
2021/05/12 14:23:14;;;;;;;6.65;1.34;;;;;;;20.10;40.92;98792.28;2011638;80;20303;-74
2021/05/12 14:26:17;;;;;;;2.44;0.80;;;;;;;19.78;40.89;98779.97;2010891;80;20184;-73
2021/05/12 14:29:29;;;;;;;6.34;0.77;;;;;;;19.57;40.84;98784.56;2011120;80;20691;-73
2021/05/12 14:32:32;;;;;;;6.06;0.90;;;;;;;19.79;42.92;98787.78;2010017;80;20741;-74
2021/05/12 14:35:36;;;;;;;5.15;0.91;;;;;;;19.65;42.64;98774.47;2010606;80;20214;-74
2021/05/12 14:38:38;;;;;;;4.71;0.89;;;;;;;19.59;41.31;98780.91;2010722;80;20249;-73
2021/05/12 14:41:41;;;;;;;6.06;0.91;;;;;;;19.53;41.71;98780.31;2011009;80;20184;-74